Time;durP1;ratioP1;P1;durP2;ratioP2;P2;SDS_P1;SDS_P2;PMS_P1;PMS_P2;Temp;Humidity;BMP_temperature;BMP_pressure;BME280_temperature;BME280_humidity;BME280_pressure;Samples;Min_cycle;Max_cycle;Signal;HPM_P1;HPM_P2
2022/02/27 00:00:40;;;;;;;3.07;1.47;;;-3.40;99.90;;;;;;2103764;28;20259;-75
2022/02/27 00:01:41;;;;;;;3.60;1.77;;;-3.40;99.90;;;;;;2092795;28;20562;-75
2022/02/27 00:02:42;;;;;;;2.03;1.33;;;-3.40;99.90;;;;;;2089574;28;20184;-75
2022/02/27 00:03:42;;;;;;;6.40;1.58;;;-3.40;99.90;;;;;;2096335;28;20179;-75
2022/02/27 00:04:43;;;;;;;7.17;1.60;;;-3.40;99.90;;;;;;2086801;28;20601;-77
2022/02/27 00:05:44;;;;;;;4.90;2.13;;;-3.30;99.90;;;;;;2079179;28;20191;-76
2022/02/27 00:06:44;;;;;;;9.53;1.30;;;-3.30;99.90;;;;;;2097477;28;20188;-77
2022/02/27 00:07:45;;;;;;;5.13;1.97;;;-3.40;99.90;;;;;;2104629;28;20613;-77
2022/02/27 00:08:46;;;;;;;5.50;1.30;;;-3.40;99.90;;;;;;2102992;28;20207;-77
2022/02/27 00:09:46;;;;;;;3.77;1.13;;;-3.40;99.90;;;;;;2105258;28;20675;-75
2022/02/27 00:10:47;;;;;;;14.57;1.83;;;-3.40;99.90;;;;;;2098560;28;20251;-75
2022/02/27 00:11:48;;;;;;;5.30;1.30;;;-3.40;99.90;;;;;;2096336;28;20193;-75
2022/02/27 00:12:50;;;;;;;4.68;1.52;;;-3.40;99.90;;;;;;2102674;28;20459;-75
2022/02/27 00:13:50;;;;;;;3.50;1.38;;;-3.40;99.90;;;;;;2095913;28;20560;-71
2022/02/27 00:14:51;;;;;;;2.77;1.47;;;-3.40;99.90;;;;;;2098371;28;20192;-72
2022/02/27 00:15:52;;;;;;;2.27;1.50;;;-3.40;99.90;;;;;;2095445;28;20202;-77
2022/02/27 00:16:52;;;;;;;2.77;1.40;;;-3.40;99.90;;;;;;2094536;28;20736;-75
2022/02/27 00:17:53;;;;;;;4.13;1.70;;;-3.40;99.90;;;;;;2097348;28;20284;-71
2022/02/27 00:18:54;;;;;;;3.10;1.90;;;-3.30;99.90;;;;;;2096028;28;20192;-70
2022/02/27 00:19:54;;;;;;;3.13;1.47;;;-3.40;99.90;;;;;;2096433;28;20188;-71
2022/02/27 00:20:55;;;;;;;4.00;1.63;;;-3.40;99.90;;;;;;2095700;28;20176;-71
2022/02/27 00:21:56;;;;;;;4.20;1.57;;;-3.40;99.90;;;;;;2096141;28;20233;-71
2022/02/27 00:22:56;;;;;;;6.97;2.37;;;-3.40;99.90;;;;;;2104527;28;20184;-71
2022/02/27 00:23:57;;;;;;;5.93;1.90;;;-3.50;99.90;;;;;;2096724;28;20176;-71
2022/02/27 00:24:58;;;;;;;11.73;1.97;;;-3.40;99.90;;;;;;2096673;28;20238;-70
2022/02/27 00:25:59;;;;;;;3.97;1.63;;;-3.40;99.90;;;;;;2096005;28;20182;-71
2022/02/27 00:26:59;;;;;;;3.03;2.20;;;-3.50;99.90;;;;;;2096784;28;20224;-70
2022/02/27 00:28:01;;;;;;;5.67;1.60;;;-3.50;99.90;;;;;;2096803;28;20185;-70
2022/02/27 00:29:02;;;;;;;5.03;2.20;;;-3.50;99.90;;;;;;2096279;28;20204;-70
2022/02/27 00:30:07;;;;;;;5.10;1.90;;;-3.50;99.90;;;;;;2096214;28;20868;-70
2022/02/27 00:31:08;;;;;;;6.50;2.28;;;-3.50;99.90;;;;;;2096858;28;20256;-70
2022/02/27 00:32:09;;;;;;;9.20;2.38;;;-3.50;99.90;;;;;;2096186;28;20554;-70
2022/02/27 00:33:09;;;;;;;3.87;1.63;;;-3.50;99.90;;;;;;2087719;28;20185;-70
2022/02/27 00:34:10;;;;;;;3.87;1.80;;;-3.50;99.90;;;;;;2096316;28;20566;-70
2022/02/27 00:35:11;;;;;;;2.10;1.33;;;-3.60;99.90;;;;;;2096250;28;20184;-70
2022/02/27 00:36:12;;;;;;;5.83;1.87;;;-3.50;99.90;;;;;;2087772;28;20201;-70
2022/02/27 00:37:12;;;;;;;6.07;1.80;;;-3.50;99.90;;;;;;2088022;28;20233;-69
2022/02/27 00:38:13;;;;;;;5.50;2.07;;;-3.50;99.90;;;;;;2096883;28;20180;-70
2022/02/27 00:39:14;;;;;;;3.60;1.93;;;-3.50;99.90;;;;;;2096700;28;20546;-71
2022/02/27 00:40:14;;;;;;;3.20;1.70;;;-3.50;99.90;;;;;;2095968;28;20271;-70
2022/02/27 00:41:15;;;;;;;5.10;1.90;;;-3.50;99.90;;;;;;2096091;28;20635;-70
2022/02/27 00:42:16;;;;;;;2.60;1.53;;;-3.50;99.90;;;;;;2096792;28;20180;-70
2022/02/27 00:43:16;;;;;;;4.27;2.27;;;-3.50;99.90;;;;;;2096018;28;20652;-70
2022/02/27 00:44:17;;;;;;;4.27;1.43;;;-3.50;99.90;;;;;;2087588;28;20173;-71
2022/02/27 00:45:18;;;;;;;4.07;1.90;;;-3.50;99.90;;;;;;2095466;28;20174;-70
2022/02/27 00:46:18;;;;;;;4.37;1.60;;;-3.50;99.90;;;;;;2097002;28;20707;-70
2022/02/27 00:47:19;;;;;;;9.20;1.87;;;-3.50;99.90;;;;;;2098119;28;20681;-71
2022/02/27 00:48:19;;;;;;;2.60;1.67;;;-3.50;99.90;;;;;;2097700;28;20202;-70
2022/02/27 00:49:20;;;;;;;5.23;1.60;;;-3.60;99.90;;;;;;2097498;28;20218;-70
2022/02/27 00:50:21;;;;;;;2.70;1.70;;;-3.60;99.90;;;;;;2089205;28;20194;-70
2022/02/27 00:51:21;;;;;;;5.53;1.53;;;-3.60;99.90;;;;;;2081077;28;20220;-70
2022/02/27 00:52:22;;;;;;;2.93;2.17;;;-3.60;99.90;;;;;;2097783;28;20662;-70
2022/02/27 00:53:23;;;;;;;3.88;1.63;;;-3.60;99.90;;;;;;2097679;28;20176;-70
2022/02/27 00:54:24;;;;;;;3.03;1.87;;;-3.60;99.90;;;;;;2097573;28;20184;-70
2022/02/27 00:55:24;;;;;;;5.80;2.10;;;-3.60;99.90;;;;;;2096811;28;20203;-70
2022/02/27 00:56:25;;;;;;;3.53;1.83;;;-3.60;99.90;;;;;;2097599;28;20184;-71
2022/02/27 00:57:28;;;;;;;9.30;2.30;;;-3.60;99.90;;;;;;2098276;28;20195;-70
2022/02/27 00:58:28;;;;;;;3.80;1.48;;;-3.60;99.90;;;;;;2098294;28;20257;-71
2022/02/27 00:59:29;;;;;;;7.33;1.80;;;-3.60;99.90;;;;;;2098160;28;20206;-70
2022/02/27 01:00:30;;;;;;;4.30;1.60;;;-3.50;99.90;;;;;;2097579;28;20261;-71
2022/02/27 01:01:31;;;;;;;4.27;1.50;;;-3.60;99.90;;;;;;2097472;28;20180;-70
2022/02/27 01:02:32;;;;;;;2.33;1.80;;;-3.60;99.90;;;;;;2097629;28;20184;-70
2022/02/27 01:03:32;;;;;;;2.47;1.57;;;-3.60;99.90;;;;;;2097500;28;20190;-70
2022/02/27 01:04:33;;;;;;;3.47;2.43;;;-3.60;99.90;;;;;;2098126;28;20168;-70
2022/02/27 01:05:34;;;;;;;7.10;1.97;;;-3.60;99.90;;;;;;2097492;28;20628;-71
2022/02/27 01:06:34;;;;;;;4.63;1.60;;;-3.50;99.90;;;;;;2098199;28;20180;-71
2022/02/27 01:07:35;;;;;;;5.33;1.70;;;-3.50;99.90;;;;;;2098214;28;20198;-71
2022/02/27 01:08:36;;;;;;;3.30;1.67;;;-3.40;99.90;;;;;;2097619;28;20180;-70
2022/02/27 01:09:36;;;;;;;6.53;1.80;;;-3.50;99.90;;;;;;2097580;28;20196;-71
2022/02/27 01:10:37;;;;;;;5.60;2.27;;;-3.50;99.90;;;;;;2098222;28;20245;-70
2022/02/27 01:11:38;;;;;;;5.80;1.63;;;-3.50;99.90;;;;;;2097731;28;20241;-71
2022/02/27 01:12:39;;;;;;;6.23;1.70;;;-3.50;99.90;;;;;;2097491;28;20281;-70
2022/02/27 01:13:39;;;;;;;4.97;1.67;;;-3.50;99.90;;;;;;2097495;28;20216;-71
2022/02/27 01:14:40;;;;;;;6.30;1.97;;;-3.60;99.90;;;;;;2097507;28;20948;-71
2022/02/27 01:15:41;;;;;;;4.23;1.80;;;-3.60;99.90;;;;;;2096915;28;20619;-69
2022/02/27 01:16:42;;;;;;;5.20;2.03;;;-3.60;99.90;;;;;;2089163;28;20908;-71
2022/02/27 01:17:43;;;;;;;5.07;1.73;;;-3.50;99.90;;;;;;2089473;28;20183;-70
2022/02/27 01:18:43;;;;;;;5.50;1.40;;;-3.60;99.90;;;;;;2089342;28;20184;-70
2022/02/27 01:19:44;;;;;;;3.63;1.40;;;-3.60;99.90;;;;;;2089329;28;20671;-70
2022/02/27 01:20:45;;;;;;;5.13;1.43;;;-3.60;99.90;;;;;;2089224;28;21043;-71
2022/02/27 01:21:45;;;;;;;8.30;1.47;;;-3.60;99.90;;;;;;2097614;28;20196;-70
2022/02/27 01:22:46;;;;;;;3.37;1.57;;;-3.60;99.90;;;;;;2098383;28;20185;-70
2022/02/27 01:23:47;;;;;;;3.20;1.93;;;-3.60;99.90;;;;;;2098211;28;20699;-71
2022/02/27 01:24:48;;;;;;;3.88;1.50;;;-3.60;99.90;;;;;;2098122;28;20325;-70
2022/02/27 01:25:49;;;;;;;2.50;1.40;;;-3.50;99.90;;;;;;2097056;28;20229;-70
2022/02/27 01:26:49;;;;;;;4.40;1.97;;;-3.60;99.90;;;;;;2080945;28;20177;-70
2022/02/27 01:27:50;;;;;;;2.03;1.43;;;-3.60;99.90;;;;;;2089516;28;20168;-70
2022/02/27 01:28:51;;;;;;;7.93;1.60;;;-3.60;99.90;;;;;;2098154;28;20176;-71
2022/02/27 01:29:52;;;;;;;6.07;1.30;;;-3.60;99.90;;;;;;2098187;28;20192;-71
2022/02/27 01:30:54;;;;;;;6.78;1.55;;;-3.60;99.90;;;;;;2098087;28;20178;-70
2022/02/27 01:31:54;;;;;;;3.20;1.38;;;-3.60;99.90;;;;;;2098071;28;20186;-70
2022/02/27 01:32:55;;;;;;;3.13;1.70;;;-3.60;99.90;;;;;;2097418;28;20185;-70
2022/02/27 01:33:56;;;;;;;3.83;1.57;;;-3.70;99.90;;;;;;2097519;28;20177;-70
2022/02/27 01:34:56;;;;;;;4.40;1.33;;;-3.70;99.90;;;;;;2097332;28;20180;-70
2022/02/27 01:35:57;;;;;;;3.07;1.47;;;-3.70;99.90;;;;;;2096829;28;20249;-70
2022/02/27 01:36:58;;;;;;;8.23;1.20;;;-3.70;99.90;;;;;;2097964;28;20237;-70
2022/02/27 01:37:59;;;;;;;5.35;2.95;;;-3.70;99.90;;;;;;2098228;28;20196;-70
2022/02/27 01:38:59;;;;;;;4.77;1.30;;;-3.70;99.90;;;;;;2097221;28;20786;-70
2022/02/27 01:40:01;;;;;;;5.30;2.17;;;-3.70;99.90;;;;;;2097349;28;20207;-70
2022/02/27 01:41:01;;;;;;;3.00;1.60;;;-3.70;99.90;;;;;;2097303;28;20225;-70
2022/02/27 01:42:02;;;;;;;4.30;1.50;;;-3.70;99.90;;;;;;2097441;28;20186;-71
2022/02/27 01:43:03;;;;;;;3.17;1.30;;;-3.70;99.90;;;;;;2097995;28;20414;-70
2022/02/27 01:44:04;;;;;;;6.73;1.87;;;-3.70;99.90;;;;;;2097335;28;20663;-70
2022/02/27 01:45:06;;;;;;;4.47;1.60;;;-3.70;99.90;;;;;;2097055;28;20181;-70
2022/02/27 01:46:09;;;;;;;6.45;2.20;;;-3.70;99.90;;;;;;2096854;28;20242;-71
2022/02/27 01:47:12;;;;;;;5.13;1.90;;;-3.70;99.90;;;;;;2089214;28;20569;-71
2022/02/27 01:48:12;;;;;;;2.70;1.77;;;-3.70;99.90;;;;;;2097191;28;20189;-70
2022/02/27 01:49:13;;;;;;;7.03;2.30;;;-3.70;99.90;;;;;;2097372;28;20179;-70
2022/02/27 01:50:14;;;;;;;7.90;1.60;;;-3.70;99.90;;;;;;2097886;28;20653;-71
2022/02/27 01:51:14;;;;;;;2.07;1.30;;;-3.70;99.90;;;;;;2098012;28;20527;-70
2022/02/27 01:52:15;;;;;;;4.00;1.60;;;-3.70;99.90;;;;;;2097937;28;20183;-70
2022/02/27 01:53:16;;;;;;;7.13;1.63;;;-3.70;99.90;;;;;;2097939;28;20619;-71
2022/02/27 01:54:16;;;;;;;6.77;1.43;;;-3.80;99.90;;;;;;2097354;28;20191;-70
2022/02/27 01:55:18;;;;;;;2.80;1.50;;;-3.80;99.90;;;;;;2096760;28;20587;-70
2022/02/27 01:56:19;;;;;;;6.50;1.77;;;-3.80;99.90;;;;;;2097170;28;20223;-70
2022/02/27 01:57:20;;;;;;;5.23;1.67;;;-3.70;99.90;;;;;;2088944;28;20215;-70
2022/02/27 01:58:21;;;;;;;4.90;1.98;;;-3.70;99.90;;;;;;2086060;28;20172;-70
2022/02/27 01:59:23;;;;;;;4.93;1.60;;;-3.80;99.90;;;;;;2097034;28;20245;-71
2022/02/27 02:00:23;;;;;;;7.90;1.60;;;-3.80;99.90;;;;;;2088781;28;20204;-71
2022/02/27 02:01:24;;;;;;;4.87;2.17;;;-3.80;99.90;;;;;;2080702;28;20706;-70
2022/02/27 02:02:25;;;;;;;5.47;1.93;;;-3.80;99.90;;;;;;2088793;28;20274;-70
2022/02/27 02:03:27;;;;;;;3.00;1.60;;;-3.80;99.90;;;;;;2088868;28;20291;-71
2022/02/27 02:04:27;;;;;;;10.50;2.08;;;-3.80;99.90;;;;;;2080464;28;20179;-70
2022/02/27 02:05:28;;;;;;;3.70;1.70;;;-3.80;99.90;;;;;;2088258;28;20254;-70
2022/02/27 02:06:29;;;;;;;2.63;1.87;;;-3.80;99.90;;;;;;2089453;28;20924;-70
2022/02/27 02:07:29;;;;;;;4.37;1.90;;;-3.90;99.90;;;;;;2088799;28;20274;-71
2022/02/27 02:08:30;;;;;;;3.43;1.47;;;-3.80;99.90;;;;;;2080454;28;20190;-70
2022/02/27 02:09:31;;;;;;;2.67;1.63;;;-3.90;99.90;;;;;;2080624;28;20181;-70
2022/02/27 02:10:32;;;;;;;6.80;1.80;;;-3.90;99.90;;;;;;2088737;28;20184;-70
2022/02/27 02:11:35;;;;;;;4.43;1.60;;;-3.90;99.90;;;;;;2089614;28;20197;-71
2022/02/27 02:12:36;;;;;;;5.38;2.20;;;-3.90;99.90;;;;;;2088758;28;20995;-70
2022/02/27 02:13:42;;;;;;;4.97;1.70;;;-3.90;99.90;;;;;;2080634;28;20196;-70
2022/02/27 02:14:42;;;;;;;6.28;1.98;;;-3.90;99.90;;;;;;2081019;28;21263;-70
2022/02/27 02:15:43;;;;;;;4.07;1.93;;;-3.90;99.90;;;;;;2088346;28;20195;-70
2022/02/27 02:16:50;;;;;;;3.97;1.53;;;-3.90;99.90;;;;;;2089453;28;20180;-71
2022/02/27 02:17:50;;;;;;;2.70;1.90;;;-3.90;99.90;;;;;;2089702;28;20629;-71
2022/02/27 02:18:51;;;;;;;3.00;2.20;;;-3.90;99.90;;;;;;2089324;28;20204;-70
2022/02/27 02:19:53;;;;;;;8.23;2.10;;;-3.90;99.90;;;;;;2089235;28;20255;-70
2022/02/27 02:20:54;;;;;;;2.40;1.42;;;-3.90;99.90;;;;;;2088690;28;20196;-70
2022/02/27 02:22:00;;;;;;;5.03;1.60;;;-3.90;99.90;;;;;;2085437;28;20292;-70
2022/02/27 02:23:01;;;;;;;5.95;1.85;;;-3.90;99.90;;;;;;2096971;28;20899;-70
2022/02/27 02:24:02;;;;;;;5.73;2.03;;;-3.90;99.90;;;;;;2097030;28;20219;-71
2022/02/27 02:25:03;;;;;;;4.17;2.23;;;-3.90;99.90;;;;;;2088636;28;20212;-70
2022/02/27 02:26:05;;;;;;;5.28;2.22;;;-3.90;99.90;;;;;;2096583;28;20252;-71
2022/02/27 02:27:05;;;;;;;2.97;1.70;;;-3.90;99.90;;;;;;2096818;28;20212;-70
2022/02/27 02:28:06;;;;;;;7.47;2.00;;;-3.90;99.90;;;;;;2097100;28;20263;-70
2022/02/27 02:29:09;;;;;;;9.83;1.70;;;-3.90;99.90;;;;;;2096953;28;20195;-71
2022/02/27 02:30:11;;;;;;;6.40;1.73;;;-4.00;99.90;;;;;;2097068;28;20253;-70
2022/02/27 02:31:12;;;;;;;4.80;1.60;;;-4.00;99.90;;;;;;2097046;28;20663;-71
2022/02/27 02:32:13;;;;;;;2.77;1.40;;;-4.00;99.90;;;;;;2096997;28;20184;-71
2022/02/27 02:33:13;;;;;;;5.80;1.73;;;-4.00;99.90;;;;;;2096858;28;20179;-70
2022/02/27 02:34:17;;;;;;;4.73;1.50;;;-4.00;99.90;;;;;;2088836;28;20293;-70
2022/02/27 02:35:18;;;;;;;3.60;2.40;;;-4.00;99.90;;;;;;2096256;28;20187;-69
2022/02/27 02:36:19;;;;;;;4.97;2.00;;;-4.00;99.90;;;;;;2096939;28;20184;-70
2022/02/27 02:37:20;;;;;;;3.10;1.67;;;-4.00;99.90;;;;;;2088215;28;20201;-70
2022/02/27 02:38:20;;;;;;;7.20;2.13;;;-4.00;99.90;;;;;;2097031;28;20180;-70
2022/02/27 02:39:24;;;;;;;4.03;1.80;;;-4.00;99.90;;;;;;2097549;28;20662;-71
2022/02/27 02:40:26;;;;;;;4.57;1.80;;;-4.00;99.90;;;;;;2096935;28;20207;-70
2022/02/27 02:41:27;;;;;;;7.30;1.63;;;-4.00;99.90;;;;;;2088708;28;20962;-71
2022/02/27 02:42:27;;;;;;;5.07;1.80;;;-4.00;99.90;;;;;;2097070;28;20181;-71
2022/02/27 02:43:28;;;;;;;5.53;1.90;;;-4.00;99.90;;;;;;2097556;28;20414;-70
2022/02/27 02:44:29;;;;;;;4.93;2.20;;;-4.00;99.90;;;;;;2097608;28;20188;-71
2022/02/27 02:45:29;;;;;;;3.73;1.70;;;-4.00;99.90;;;;;;2096909;28;20215;-70
2022/02/27 02:46:31;;;;;;;7.27;2.27;;;-4.00;99.90;;;;;;2097350;28;20180;-70
2022/02/27 02:47:31;;;;;;;5.90;3.25;;;-4.00;99.90;;;;;;2096967;28;20224;-71
2022/02/27 02:48:32;;;;;;;5.73;2.63;;;-4.00;99.90;;;;;;2088490;28;20196;-70
2022/02/27 02:49:33;;;;;;;3.40;1.80;;;-4.00;99.90;;;;;;2096844;28;20890;-71
2022/02/27 02:50:34;;;;;;;3.47;1.80;;;-4.00;99.90;;;;;;2096673;28;20705;-71
2022/02/27 02:51:35;;;;;;;4.80;1.90;;;-4.00;99.90;;;;;;2096858;28;20533;-70
2022/02/27 02:52:36;;;;;;;3.58;2.03;;;-4.00;99.90;;;;;;2096515;28;20182;-71
2022/02/27 02:53:39;;;;;;;14.60;2.13;;;-4.10;99.90;;;;;;2088560;28;20204;-70
2022/02/27 02:54:39;;;;;;;6.47;1.77;;;-4.10;99.90;;;;;;2096666;28;20238;-71
2022/02/27 02:55:40;;;;;;;4.63;1.60;;;-4.00;99.90;;;;;;2096801;28;20244;-71
2022/02/27 02:56:41;;;;;;;6.63;1.50;;;-4.00;99.90;;;;;;2097272;28;20560;-70
2022/02/27 02:57:42;;;;;;;11.10;2.17;;;-4.00;99.90;;;;;;2097333;28;20187;-70
2022/02/27 02:58:44;;;;;;;4.20;2.47;;;-4.10;99.90;;;;;;2096623;28;20262;-70
2022/02/27 02:59:44;;;;;;;5.57;2.20;;;-4.10;99.90;;;;;;2088515;28;20427;-69
2022/02/27 03:00:45;;;;;;;3.03;1.60;;;-4.10;99.90;;;;;;2096492;28;20214;-70
2022/02/27 03:01:46;;;;;;;4.57;1.60;;;-4.10;99.90;;;;;;2097474;28;20662;-70
2022/02/27 03:02:48;;;;;;;6.82;1.90;;;-4.10;99.90;;;;;;2097144;28;20175;-70
2022/02/27 03:03:50;;;;;;;3.15;1.50;;;-4.10;99.90;;;;;;2097406;28;20534;-71
2022/02/27 03:04:50;;;;;;;4.47;1.58;;;-4.10;99.90;;;;;;2096523;28;20253;-69
2022/02/27 03:05:51;;;;;;;2.77;1.60;;;-4.10;99.90;;;;;;2088161;28;20319;-71
2022/02/27 03:06:52;;;;;;;2.53;1.67;;;-4.20;99.90;;;;;;2096505;28;20194;-71
2022/02/27 03:07:53;;;;;;;7.13;1.90;;;-4.20;99.90;;;;;;2096456;28;20172;-71
2022/02/27 03:08:53;;;;;;;4.37;1.40;;;-4.20;99.90;;;;;;2096513;28;20179;-71
2022/02/27 03:09:54;;;;;;;3.87;1.37;;;-4.30;99.90;;;;;;2096286;28;20183;-70
2022/02/27 03:10:55;;;;;;;6.13;1.63;;;-4.30;99.90;;;;;;2096532;28;20191;-70
2022/02/27 03:11:56;;;;;;;11.77;3.05;;;-4.30;99.90;;;;;;2096591;28;20179;-70
2022/02/27 03:12:56;;;;;;;5.23;2.27;;;-4.30;99.90;;;;;;2096419;28;20192;-70
2022/02/27 03:14:00;;;;;;;3.70;1.87;;;-4.30;99.90;;;;;;2097399;28;20179;-70
2022/02/27 03:15:02;;;;;;;4.35;1.30;;;-4.30;99.90;;;;;;2096380;28;20324;-70
2022/02/27 03:16:05;;;;;;;3.47;2.20;;;-4.30;99.90;;;;;;2096117;28;20185;-70
2022/02/27 03:17:05;;;;;;;4.53;1.77;;;-4.30;99.90;;;;;;2097078;28;20575;-71
2022/02/27 03:18:06;;;;;;;2.47;1.63;;;-4.30;99.90;;;;;;2096614;28;20205;-70
2022/02/27 03:19:07;;;;;;;7.77;2.17;;;-4.30;99.90;;;;;;2096489;28;20560;-70
2022/02/27 03:20:08;;;;;;;8.83;1.93;;;-4.30;99.90;;;;;;2097243;28;20183;-70
2022/02/27 03:21:09;;;;;;;5.13;2.17;;;-4.30;99.90;;;;;;2097123;28;20707;-70
2022/02/27 03:22:09;;;;;;;4.18;1.70;;;-4.30;99.90;;;;;;2096606;28;20179;-71
2022/02/27 03:23:10;;;;;;;5.93;1.80;;;-4.30;99.90;;;;;;2088122;28;20717;-71
2022/02/27 03:24:11;;;;;;;5.00;1.93;;;-4.30;99.90;;;;;;2096621;28;20228;-70
2022/02/27 03:25:12;;;;;;;6.93;2.10;;;-4.30;99.90;;;;;;2096524;28;20179;-70
2022/02/27 03:26:12;;;;;;;3.50;2.10;;;-4.30;99.90;;;;;;2097210;28;20233;-70
2022/02/27 03:27:13;;;;;;;5.07;2.17;;;-4.30;99.90;;;;;;2096578;28;20188;-70
2022/02/27 03:28:14;;;;;;;6.43;2.20;;;-4.40;99.90;;;;;;2096436;28;20674;-70
2022/02/27 03:29:14;;;;;;;6.03;2.07;;;-4.30;99.90;;;;;;2097115;28;20202;-71
2022/02/27 03:30:16;;;;;;;4.00;2.10;;;-4.30;99.90;;;;;;2096520;28;20186;-70
2022/02/27 03:31:17;;;;;;;3.45;1.60;;;-4.30;99.90;;;;;;2088391;28;20211;-71
2022/02/27 03:32:18;;;;;;;3.97;2.53;;;-4.30;99.90;;;;;;2096443;28;20175;-70
2022/02/27 03:33:18;;;;;;;9.07;2.37;;;-4.30;99.90;;;;;;2096536;28;20236;-71
2022/02/27 03:34:19;;;;;;;7.47;2.33;;;-4.30;99.90;;;;;;2088113;28;20670;-68
2022/02/27 03:35:21;;;;;;;4.20;1.80;;;-4.30;99.90;;;;;;2087662;28;20339;-70
2022/02/27 03:36:22;;;;;;;9.85;2.38;;;-4.30;99.90;;;;;;2096437;28;20225;-71
2022/02/27 03:37:23;;;;;;;4.50;2.00;;;-4.30;99.90;;;;;;2097269;28;20272;-70
2022/02/27 03:38:24;;;;;;;3.47;2.30;;;-4.30;99.90;;;;;;2097010;28;20172;-71
2022/02/27 03:39:24;;;;;;;3.83;2.10;;;-4.30;99.90;;;;;;2096396;28;20660;-71
2022/02/27 03:40:25;;;;;;;4.03;1.70;;;-4.40;99.90;;;;;;2096326;28;20204;-70
2022/02/27 03:41:26;;;;;;;5.13;2.97;;;-4.40;99.90;;;;;;2097213;28;20180;-71
2022/02/27 03:42:26;;;;;;;4.93;2.07;;;-4.40;99.90;;;;;;2096309;28;20191;-70
2022/02/27 03:43:27;;;;;;;6.60;2.07;;;-4.40;99.90;;;;;;2096516;28;20175;-70
2022/02/27 03:44:27;;;;;;;4.07;1.60;;;-4.40;99.90;;;;;;2096947;28;20756;-70
2022/02/27 03:45:28;;;;;;;5.30;2.03;;;-4.40;99.90;;;;;;2095871;28;20565;-70
2022/02/27 03:46:34;;;;;;;3.03;1.80;;;-4.40;99.90;;;;;;2096397;28;20506;-69
2022/02/27 03:47:35;;;;;;;3.90;2.22;;;-4.40;99.90;;;;;;2096422;28;20761;-70
2022/02/27 03:48:35;;;;;;;10.17;2.00;;;-4.40;99.90;;;;;;2096364;28;20191;-70
2022/02/27 03:49:36;;;;;;;4.23;2.33;;;-4.40;99.90;;;;;;2097089;28;20185;-70
2022/02/27 03:50:37;;;;;;;4.83;1.90;;;-4.40;99.90;;;;;;2096895;28;20211;-71
2022/02/27 03:51:37;;;;;;;5.80;3.07;;;-4.50;99.90;;;;;;2097085;28;20192;-70
2022/02/27 03:52:38;;;;;;;5.60;2.40;;;-4.50;99.90;;;;;;2096949;28;20187;-70
2022/02/27 03:53:39;;;;;;;6.97;2.40;;;-4.50;99.90;;;;;;2096498;28;20183;-70
2022/02/27 03:54:40;;;;;;;4.30;2.33;;;-4.50;99.90;;;;;;2088060;28;20188;-70
2022/02/27 03:55:40;;;;;;;5.40;2.83;;;-4.50;99.90;;;;;;2087435;28;20184;-71
2022/02/27 03:56:41;;;;;;;6.70;2.60;;;-4.50;99.90;;;;;;2096298;28;20185;-71
2022/02/27 03:57:42;;;;;;;6.17;2.50;;;-4.50;99.90;;;;;;2097292;28;20647;-70
2022/02/27 03:58:42;;;;;;;6.00;1.90;;;-4.50;99.90;;;;;;2096245;28;20215;-70
2022/02/27 03:59:43;;;;;;;4.90;1.73;;;-4.50;99.90;;;;;;2088098;28;20279;-70
2022/02/27 04:00:44;;;;;;;2.70;1.70;;;-4.60;99.90;;;;;;2096103;28;20295;-70
2022/02/27 04:01:45;;;;;;;4.68;1.88;;;-4.80;99.90;;;;;;2096336;28;20176;-70
2022/02/27 04:02:46;;;;;;;2.93;1.90;;;-4.90;99.90;;;;;;2086181;28;20287;-70
2022/02/27 04:03:47;;;;;;;5.32;2.67;;;-4.90;99.90;;;;;;2080052;28;20186;-71
2022/02/27 04:04:48;;;;;;;5.07;2.73;;;-4.90;99.90;;;;;;2079572;28;20207;-70
2022/02/27 04:05:49;;;;;;;3.40;2.30;;;-4.90;99.90;;;;;;2079213;28;20180;-71
2022/02/27 04:06:49;;;;;;;5.85;2.45;;;-4.90;99.90;;;;;;2087855;28;20312;-70
2022/02/27 04:07:50;;;;;;;5.30;2.33;;;-4.80;99.90;;;;;;2088733;28;20189;-71
2022/02/27 04:08:51;;;;;;;5.33;2.70;;;-4.80;99.90;;;;;;2088665;28;20181;-71
2022/02/27 04:09:51;;;;;;;4.10;2.40;;;-4.80;99.90;;;;;;2088004;28;20203;-71
2022/02/27 04:10:52;;;;;;;7.27;2.50;;;-4.80;99.90;;;;;;2088002;28;20191;-70
2022/02/27 04:11:52;;;;;;;9.73;2.10;;;-4.90;99.90;;;;;;2088410;28;20176;-70
2022/02/27 04:12:53;;;;;;;3.57;1.73;;;-4.80;99.90;;;;;;2087981;28;20177;-71
2022/02/27 04:13:54;;;;;;;7.07;2.13;;;-4.80;99.90;;;;;;2087879;28;20230;-70
2022/02/27 04:14:55;;;;;;;4.77;2.50;;;-4.80;99.90;;;;;;2088006;28;20705;-70
2022/02/27 04:15:55;;;;;;;5.53;1.90;;;-4.80;99.90;;;;;;2087332;28;20722;-70
2022/02/27 04:16:56;;;;;;;7.30;2.20;;;-4.80;99.90;;;;;;2088470;28;20200;-69
2022/02/27 04:17:57;;;;;;;4.00;1.83;;;-4.80;99.90;;;;;;2088522;28;20283;-70
2022/02/27 04:18:57;;;;;;;5.23;2.20;;;-4.80;99.90;;;;;;2087835;28;20675;-70
2022/02/27 04:19:58;;;;;;;5.63;2.83;;;-4.80;99.90;;;;;;2090774;28;20904;-70
2022/02/27 04:20:59;;;;;;;4.25;1.85;;;-4.80;99.90;;;;;;2096184;28;20690;-70
2022/02/27 04:22:00;;;;;;;6.03;2.53;;;-4.80;99.90;;;;;;2097298;28;20191;-70
2022/02/27 04:23:00;;;;;;;5.37;2.63;;;-4.80;99.90;;;;;;2098522;28;20556;-70
2022/02/27 04:24:02;;;;;;;6.33;2.03;;;-4.80;99.90;;;;;;2098425;28;20614;-70
2022/02/27 04:25:04;;;;;;;6.15;2.25;;;-4.80;99.90;;;;;;2098539;28;20627;-70
2022/02/27 04:26:05;;;;;;;7.15;2.60;;;-4.80;99.90;;;;;;2097178;28;20206;-69
2022/02/27 04:27:05;;;;;;;6.20;2.17;;;-4.80;99.90;;;;;;2097918;28;20309;-70
2022/02/27 04:28:06;;;;;;;7.30;1.90;;;-4.70;99.90;;;;;;2098387;28;20186;-70
2022/02/27 04:29:07;;;;;;;5.10;2.30;;;-4.70;99.90;;;;;;2098546;28;20176;-70
2022/02/27 04:30:08;;;;;;;2.80;1.40;;;-4.80;99.90;;;;;;2097770;28;20697;-70
2022/02/27 04:31:09;;;;;;;4.25;2.25;;;-4.90;99.90;;;;;;2089607;28;20274;-70
2022/02/27 04:32:09;;;;;;;3.70;2.10;;;-4.90;99.90;;;;;;2097711;28;20223;-70
2022/02/27 04:33:10;;;;;;;6.60;2.30;;;-4.90;99.90;;;;;;2098419;28;20191;-70
2022/02/27 04:34:11;;;;;;;4.63;2.93;;;-5.00;99.90;;;;;;2098427;28;20194;-69
2022/02/27 04:35:11;;;;;;;3.77;1.90;;;-5.00;99.90;;;;;;2097130;28;20195;-70
2022/02/27 04:36:12;;;;;;;4.60;1.93;;;-5.00;99.90;;;;;;2097672;28;20586;-70
2022/02/27 04:37:13;;;;;;;4.47;1.73;;;-5.00;99.90;;;;;;2097678;28;20338;-70
2022/02/27 04:38:13;;;;;;;4.00;2.43;;;-5.00;99.90;;;;;;2089304;28;20176;-70
2022/02/27 04:39:14;;;;;;;6.20;2.17;;;-5.00;99.90;;;;;;2097762;28;20800;-70
2022/02/27 04:40:15;;;;;;;6.65;2.50;;;-5.00;99.90;;;;;;2097508;28;20175;-70
2022/02/27 04:41:18;;;;;;;5.17;2.23;;;-5.00;99.90;;;;;;2097708;28;20754;-70
2022/02/27 04:42:18;;;;;;;4.25;2.20;;;-5.00;99.90;;;;;;2097595;28;20254;-70
2022/02/27 04:43:19;;;;;;;5.03;2.50;;;-4.90;99.90;;;;;;2097777;28;20172;-70
2022/02/27 04:44:20;;;;;;;3.80;1.70;;;-4.90;99.90;;;;;;2097479;28;20179;-70
2022/02/27 04:45:20;;;;;;;3.47;2.30;;;-4.90;99.90;;;;;;2097144;28;20503;-70
2022/02/27 04:46:21;;;;;;;5.57;1.90;;;-4.90;99.90;;;;;;2098328;28;20827;-70
2022/02/27 04:47:22;;;;;;;4.10;2.03;;;-4.90;99.90;;;;;;2097993;28;20195;-70
2022/02/27 04:48:22;;;;;;;2.90;2.00;;;-5.00;99.90;;;;;;2097776;28;20216;-70
2022/02/27 04:49:25;;;;;;;6.20;2.73;;;-5.00;99.90;;;;;;2098213;28;20179;-70
2022/02/27 04:50:26;;;;;;;3.83;1.70;;;-5.00;99.90;;;;;;2098337;28;20179;-70
2022/02/27 04:51:26;;;;;;;3.13;2.07;;;-5.00;99.90;;;;;;2097540;28;20189;-70
2022/02/27 04:52:27;;;;;;;3.80;2.30;;;-5.10;99.90;;;;;;2089449;28;20663;-69
2022/02/27 04:53:27;;;;;;;3.77;2.13;;;-5.00;99.90;;;;;;2097590;28;20593;-70
2022/02/27 04:54:28;;;;;;;6.27;1.77;;;-5.00;99.90;;;;;;2098266;28;20187;-70
2022/02/27 04:55:29;;;;;;;4.33;2.20;;;-5.10;99.90;;;;;;2096924;28;20180;-69
2022/02/27 04:56:29;;;;;;;7.73;1.80;;;-5.10;99.90;;;;;;2097752;28;20184;-70
2022/02/27 04:57:31;;;;;;;4.70;2.50;;;-5.10;99.90;;;;;;2098142;28;20627;-70
2022/02/27 04:58:32;;;;;;;4.47;1.92;;;-5.20;99.90;;;;;;2098255;28;20211;-71
2022/02/27 04:59:33;;;;;;;4.57;1.70;;;-5.10;99.90;;;;;;2098128;28;20184;-69
2022/02/27 05:00:34;;;;;;;3.43;1.53;;;-5.10;99.90;;;;;;2097555;28;20204;-70
2022/02/27 05:01:34;;;;;;;7.40;2.17;;;-5.10;99.90;;;;;;2089290;28;20176;-70
2022/02/27 05:02:35;;;;;;;2.97;1.63;;;-5.10;99.90;;;;;;2089364;28;20422;-70
2022/02/27 05:03:36;;;;;;;3.93;1.90;;;-5.10;99.90;;;;;;2097537;28;20202;-70
2022/02/27 05:04:37;;;;;;;13.73;2.47;;;-5.10;99.90;;;;;;2098158;28;20259;-70
2022/02/27 05:05:37;;;;;;;4.43;2.03;;;-5.00;99.90;;;;;;2096840;28;20247;-70
2022/02/27 05:06:38;;;;;;;3.30;2.10;;;-5.10;99.90;;;;;;2097558;28;20188;-70
2022/02/27 05:07:39;;;;;;;3.30;1.93;;;-5.10;99.90;;;;;;2097722;28;20215;-69
2022/02/27 05:08:40;;;;;;;5.53;2.50;;;-5.10;99.90;;;;;;2097713;28;20204;-71
2022/02/27 05:09:41;;;;;;;8.02;3.13;;;-5.10;99.90;;;;;;2097644;28;20644;-71
2022/02/27 05:10:42;;;;;;;5.50;2.60;;;-5.10;99.90;;;;;;2097477;28;20222;-70
2022/02/27 05:11:44;;;;;;;4.77;2.43;;;-5.10;99.90;;;;;;2098118;28;20187;-70
2022/02/27 05:12:45;;;;;;;3.65;2.25;;;-5.10;99.90;;;;;;2098157;28;20192;-70
2022/02/27 05:13:45;;;;;;;9.70;3.53;;;-5.10;99.90;;;;;;2098093;28;20262;-69
2022/02/27 05:14:46;;;;;;;3.47;2.00;;;-5.10;99.90;;;;;;2097510;28;20693;-70
2022/02/27 05:15:47;;;;;;;4.07;2.03;;;-5.10;99.90;;;;;;2096778;28;20210;-70
2022/02/27 05:16:47;;;;;;;7.07;2.17;;;-5.20;99.90;;;;;;2097508;28;20186;-69